sensor_id;sensor_type;location;lat;lon;timestamp;pressure;altitude;pressure_sealevel;temperature;humidity
73063;BME280;61230;46.328;19.972;2023-03-20T00:01:29;100704.38;;;10.15;61.17
73063;BME280;61230;46.328;19.972;2023-03-20T00:03:57;100688.37;;;10.07;61.26
73063;BME280;61230;46.328;19.972;2023-03-20T00:06:26;100707.84;;;10.15;61.14
73063;BME280;61230;46.328;19.972;2023-03-20T00:08:57;100715.22;;;10.10;62.22
73063;BME280;61230;46.328;19.972;2023-03-20T00:11:46;100717.41;;;10.05;63.58
73063;BME280;61230;46.328;19.972;2023-03-20T00:14:16;100711.22;;;10.06;63.17
73063;BME280;61230;46.328;19.972;2023-03-20T00:16:46;100719.34;;;10.03;63.77
73063;BME280;61230;46.328;19.972;2023-03-20T00:19:25;100718.78;;;10.00;63.90
73063;BME280;61230;46.328;19.972;2023-03-20T00:21:54;100712.56;;;10.01;63.13
73063;BME280;61230;46.328;19.972;2023-03-20T00:24:22;100712.31;;;10.04;63.71
73063;BME280;61230;46.328;19.972;2023-03-20T00:26:51;100706.34;;;10.02;63.19
73063;BME280;61230;46.328;19.972;2023-03-20T00:29:25;100712.81;;;9.98;63.89
73063;BME280;61230;46.328;19.972;2023-03-20T00:31:55;100713.06;;;9.95;64.92
73063;BME280;61230;46.328;19.972;2023-03-20T00:34:26;100708.22;;;9.90;66.02
73063;BME280;61230;46.328;19.972;2023-03-20T00:36:56;100658.28;;;9.49;65.86
73063;BME280;61230;46.328;19.972;2023-03-20T00:39:24;100706.34;;;9.81;65.54
73063;BME280;61230;46.328;19.972;2023-03-20T00:41:54;100698.59;;;9.79;65.42
73063;BME280;61230;46.328;19.972;2023-03-20T00:46:58;100700.53;;;9.77;66.57
73063;BME280;61230;46.328;19.972;2023-03-20T00:49:29;100689.81;;;9.69;66.99
73063;BME280;61230;46.328;19.972;2023-03-20T00:52:00;100694.44;;;9.77;66.76
73063;BME280;61230;46.328;19.972;2023-03-20T00:54:29;100696.09;;;9.78;66.43
73063;BME280;61230;46.328;19.972;2023-03-20T00:59:35;100701.34;;;9.78;66.03
73063;BME280;61230;46.328;19.972;2023-03-20T01:02:05;100699.56;;;9.78;65.93
73063;BME280;61230;46.328;19.972;2023-03-20T01:04:36;100693.34;;;9.79;65.39
73063;BME280;61230;46.328;19.972;2023-03-20T01:07:05;100705.91;;;9.76;65.94
73063;BME280;61230;46.328;19.972;2023-03-20T01:09:34;100702.72;;;9.72;66.17
73063;BME280;61230;46.328;19.972;2023-03-20T01:12:03;100697.19;;;9.75;65.72
73063;BME280;61230;46.328;19.972;2023-03-20T01:14:30;100660.81;;;9.50;65.85
73063;BME280;61230;46.328;19.972;2023-03-20T01:16:58;100687.87;;;9.71;65.37
73063;BME280;61230;46.328;19.972;2023-03-20T01:19:26;100694.56;;;9.75;65.39
73063;BME280;61230;46.328;19.972;2023-03-20T01:21:54;100684.31;;;9.72;66.17
73063;BME280;61230;46.328;19.972;2023-03-20T01:24:21;100634.84;;;9.36;67.08
73063;BME280;61230;46.328;19.972;2023-03-20T01:26:49;100635.94;;;9.34;67.62
73063;BME280;61230;46.328;19.972;2023-03-20T01:29:22;100640.81;;;9.38;67.53
73063;BME280;61230;46.328;19.972;2023-03-20T01:31:50;100662.00;;;9.46;67.68
73063;BME280;61230;46.328;19.972;2023-03-20T01:34:19;100684.81;;;9.66;65.92
73063;BME280;61230;46.328;19.972;2023-03-20T01:36:57;100683.72;;;9.69;65.94
73063;BME280;61230;46.328;19.972;2023-03-20T01:39:32;100683.63;;;9.70;66.07
73063;BME280;61230;46.328;19.972;2023-03-20T01:42:02;100683.72;;;9.69;66.77
73063;BME280;61230;46.328;19.972;2023-03-20T01:44:32;100628.38;;;9.40;66.27
73063;BME280;61230;46.328;19.972;2023-03-20T01:47:02;100676.44;;;9.72;66.61
73063;BME280;61230;46.328;19.972;2023-03-20T01:50:13;100672.81;;;9.73;67.15
73063;BME280;61230;46.328;19.972;2023-03-20T01:52:45;100671.19;;;9.72;67.30
73063;BME280;61230;46.328;19.972;2023-03-20T01:55:15;100679.91;;;9.73;66.84
73063;BME280;61230;46.328;19.972;2023-03-20T01:57:45;100676.19;;;9.75;66.52
73063;BME280;61230;46.328;19.972;2023-03-20T02:00:14;100632.16;;;9.47;66.21
73063;BME280;61230;46.328;19.972;2023-03-20T02:02:47;100675.91;;;9.78;65.89
73063;BME280;61230;46.328;19.972;2023-03-20T02:05:18;100685.34;;;9.81;65.25
73063;BME280;61230;46.328;19.972;2023-03-20T02:07:55;100685.19;;;9.82;65.35
73063;BME280;61230;46.328;19.972;2023-03-20T02:10:26;100683.16;;;9.86;65.33
73063;BME280;61230;46.328;19.972;2023-03-20T02:12:54;100681.09;;;9.90;64.94
73063;BME280;61230;46.328;19.972;2023-03-20T02:15:25;100680.97;;;9.91;65.02
73063;BME280;61230;46.328;19.972;2023-03-20T02:17:59;100670.44;;;9.91;65.14
73063;BME280;61230;46.328;19.972;2023-03-20T02:48:46;100657.28;;;10.12;64.11
73063;BME280;61230;46.328;19.972;2023-03-20T02:51:48;100650.81;;;10.16;63.85
73063;BME280;61230;46.328;19.972;2023-03-20T02:54:28;100653.31;;;10.17;63.87
73063;BME280;61230;46.328;19.972;2023-03-20T03:02:27;100663.56;;;10.20;63.92
73063;BME280;61230;46.328;19.972;2023-03-20T03:05:04;100655.78;;;10.19;63.67
73063;BME280;61230;46.328;19.972;2023-03-20T03:07:35;100653.06;;;10.20;63.67
73063;BME280;61230;46.328;19.972;2023-03-20T03:10:36;100655.78;;;10.19;63.71
73063;BME280;61230;46.328;19.972;2023-03-20T03:13:03;100610.13;;;9.90;63.82
73063;BME280;61230;46.328;19.972;2023-03-20T03:15:38;100651.63;;;10.16;64.12
73063;BME280;61230;46.328;19.972;2023-03-20T03:18:13;100656.09;;;10.16;64.18
73063;BME280;61230;46.328;19.972;2023-03-20T03:20:44;100595.47;;;9.87;64.35
73063;BME280;61230;46.328;19.972;2023-03-20T03:23:28;100644.72;;;10.15;64.59
73063;BME280;61230;46.328;19.972;2023-03-20T03:25:58;100650.09;;;10.14;64.74
73063;BME280;61230;46.328;19.972;2023-03-20T03:28:41;100644.13;;;10.12;64.94
73063;BME280;61230;46.328;19.972;2023-03-20T03:31:14;100637.06;;;10.12;65.22
73063;BME280;61230;46.328;19.972;2023-03-20T03:33:47;100649.38;;;10.12;65.32
73063;BME280;61230;46.328;19.972;2023-03-20T03:47:28;100638.81;;;10.02;67.46
73063;BME280;61230;46.328;19.972;2023-03-20T03:50:06;100640.44;;;9.94;68.29
73063;BME280;61230;46.328;19.972;2023-03-20T03:52:37;100637.13;;;9.92;67.59
73063;BME280;61230;46.328;19.972;2023-03-20T03:55:10;100637.37;;;9.89;67.03
73063;BME280;61230;46.328;19.972;2023-03-20T03:57:47;100646.50;;;9.85;66.94
73063;BME280;61230;46.328;19.972;2023-03-20T04:00:19;100643.97;;;9.83;66.68
73063;BME280;61230;46.328;19.972;2023-03-20T04:02:53;100643.97;;;9.83;66.39
73063;BME280;61230;46.328;19.972;2023-03-20T04:05:21;100648.41;;;9.82;66.30
73063;BME280;61230;46.328;19.972;2023-03-20T04:07:54;100651.03;;;9.82;66.50
73063;BME280;61230;46.328;19.972;2023-03-20T04:10:23;100648.66;;;9.79;66.63
73063;BME280;61230;46.328;19.972;2023-03-20T04:12:51;100654.16;;;9.76;66.80
73063;BME280;61230;46.328;19.972;2023-03-20T04:15:19;100654.72;;;9.70;66.91
73063;BME280;61230;46.328;19.972;2023-03-20T04:17:48;100658.28;;;9.69;67.17
73063;BME280;61230;46.328;19.972;2023-03-20T04:20:16;100657.84;;;9.64;67.58
73063;BME280;61230;46.328;19.972;2023-03-20T04:22:45;100665.16;;;9.61;67.85
73063;BME280;61230;46.328;19.972;2023-03-20T04:25:24;100671.75;;;9.55;67.95
73063;BME280;61230;46.328;19.972;2023-03-20T04:27:53;100664.37;;;9.49;68.42
73063;BME280;61230;46.328;19.972;2023-03-20T04:30:22;100618.69;;;9.20;68.55
73063;BME280;61230;46.328;19.972;2023-03-20T04:32:59;100667.41;;;9.45;68.64
73063;BME280;61230;46.328;19.972;2023-03-20T04:35:28;100661.66;;;9.40;69.12
73063;BME280;61230;46.328;19.972;2023-03-20T04:37:55;100665.53;;;9.36;69.52
73063;BME280;61230;46.328;19.972;2023-03-20T04:40:24;100675.19;;;9.35;69.36
73063;BME280;61230;46.328;19.972;2023-03-20T04:42:52;100675.44;;;9.32;69.11
73063;BME280;61230;46.328;19.972;2023-03-20T04:45:20;100621.31;;;8.99;69.22
73063;BME280;61230;46.328;19.972;2023-03-20T04:47:48;100677.03;;;9.23;69.58
73063;BME280;61230;46.328;19.972;2023-03-20T04:50:16;100675.88;;;9.16;70.18
73063;BME280;61230;46.328;19.972;2023-03-20T04:52:44;100680.53;;;9.13;70.47
73063;BME280;61230;46.328;19.972;2023-03-20T04:55:12;100637.69;;;8.81;70.55
73063;BME280;61230;46.328;19.972;2023-03-20T04:57:40;100685.44;;;9.06;70.64
73063;BME280;61230;46.328;19.972;2023-03-20T05:00:09;100646.19;;;8.73;71.17
73063;BME280;61230;46.328;19.972;2023-03-20T05:02:37;100693.72;;;9.02;71.58
73063;BME280;61230;46.328;19.972;2023-03-20T05:05:05;100696.34;;;9.02;71.42
73063;BME280;61230;46.328;19.972;2023-03-20T05:07:34;100703.12;;;9.04;71.58
73063;BME280;61230;46.328;19.972;2023-03-20T05:10:03;100695.34;;;9.03;71.63
73063;BME280;61230;46.328;19.972;2023-03-20T05:12:32;100707.28;;;9.07;71.46
73063;BME280;61230;46.328;19.972;2023-03-20T05:15:00;100704.41;;;9.10;71.31
73063;BME280;61230;46.328;19.972;2023-03-20T05:17:29;100700.25;;;9.07;71.92
73063;BME280;61230;46.328;19.972;2023-03-20T05:19:59;100662.16;;;8.81;71.89
73063;BME280;61230;46.328;19.972;2023-03-20T05:22:30;100715.88;;;9.09;72.57
73063;BME280;61230;46.328;19.972;2023-03-20T05:24:59;100727.91;;;9.11;72.41
73063;BME280;61230;46.328;19.972;2023-03-20T05:27:28;100694.66;;;9.01;71.96
73063;BME280;61230;46.328;19.972;2023-03-20T05:29:56;100710.12;;;9.15;71.70
73063;BME280;61230;46.328;19.972;2023-03-20T05:32:24;100718.69;;;9.17;71.78
73063;BME280;61230;46.328;19.972;2023-03-20T05:34:52;100676.53;;;8.98;71.58
73063;BME280;61230;46.328;19.972;2023-03-20T05:37:20;100711.06;;;9.25;71.08
73063;BME280;61230;46.328;19.972;2023-03-20T05:39:48;100719.38;;;9.30;70.72
73063;BME280;61230;46.328;19.972;2023-03-20T05:42:16;100669.34;;;9.00;71.24
73063;BME280;61230;46.328;19.972;2023-03-20T05:44:44;100725.09;;;9.35;70.85
73063;BME280;61230;46.328;19.972;2023-03-20T05:47:12;100729.16;;;9.39;70.99
73063;BME280;61230;46.328;19.972;2023-03-20T05:49:40;100717.31;;;9.45;70.61
73063;BME280;61230;46.328;19.972;2023-03-20T05:52:08;100721.78;;;9.54;70.34
73063;BME280;61230;46.328;19.972;2023-03-20T05:54:36;100720.44;;;9.59;70.47
73063;BME280;61230;46.328;19.972;2023-03-20T05:57:04;100720.91;;;9.64;70.24
73063;BME280;61230;46.328;19.972;2023-03-20T05:59:32;100722.03;;;9.71;70.30
73063;BME280;61230;46.328;19.972;2023-03-20T06:02:00;100719.75;;;9.78;70.12
73063;BME280;61230;46.328;19.972;2023-03-20T06:04:29;100718.41;;;9.83;70.19
73063;BME280;61230;46.328;19.972;2023-03-20T06:06:58;100717.91;;;9.90;70.15
73063;BME280;61230;46.328;19.972;2023-03-20T06:09:26;100727.91;;;9.96;70.12
73063;BME280;61230;46.328;19.972;2023-03-20T06:11:55;100726.28;;;10.04;69.97
73063;BME280;61230;46.328;19.972;2023-03-20T06:14:22;100724.72;;;10.13;69.62
73063;BME280;61230;46.328;19.972;2023-03-20T06:16:51;100725.00;;;10.19;69.75
73063;BME280;61230;46.328;19.972;2023-03-20T06:19:20;100712.56;;;10.21;70.14
73063;BME280;61230;46.328;19.972;2023-03-20T06:21:49;100730.62;;;10.35;70.53
73063;BME280;61230;46.328;19.972;2023-03-20T06:24:17;100729.97;;;10.43;70.98
73063;BME280;61230;46.328;19.972;2023-03-20T06:26:45;100731.09;;;10.50;71.33
73063;BME280;61230;46.328;19.972;2023-03-20T06:29:13;100731.13;;;10.60;71.53
73063;BME280;61230;46.328;19.972;2023-03-20T06:31:42;100729.94;;;10.73;71.24
73063;BME280;61230;46.328;19.972;2023-03-20T06:34:10;100727.91;;;10.86;70.82
73063;BME280;61230;46.328;19.972;2023-03-20T06:36:38;100724.87;;;11.01;70.22
73063;BME280;61230;46.328;19.972;2023-03-20T06:39:07;100714.06;;;11.13;69.34
73063;BME280;61230;46.328;19.972;2023-03-20T06:41:36;100717.31;;;11.26;68.63
73063;BME280;61230;46.328;19.972;2023-03-20T06:44:04;100723.12;;;11.39;68.09
73063;BME280;61230;46.328;19.972;2023-03-20T06:46:34;100722.84;;;11.52;68.03
73063;BME280;61230;46.328;19.972;2023-03-20T06:49:03;100734.22;;;11.62;68.00
73063;BME280;61230;46.328;19.972;2023-03-20T06:51:31;100738.53;;;11.73;68.26
73063;BME280;61230;46.328;19.972;2023-03-20T06:53:59;100737.41;;;11.75;67.73
73063;BME280;61230;46.328;19.972;2023-03-20T06:56:28;100735.44;;;11.87;68.11
73063;BME280;61230;46.328;19.972;2023-03-20T06:58:56;100750.31;;;11.88;67.93
73063;BME280;61230;46.328;19.972;2023-03-20T07:01:24;100745.72;;;11.99;67.19
73063;BME280;61230;46.328;19.972;2023-03-20T07:03:55;100740.56;;;12.07;66.53
73063;BME280;61230;46.328;19.972;2023-03-20T07:06:24;100742.06;;;12.20;66.57
73063;BME280;61230;46.328;19.972;2023-03-20T07:08:53;100742.56;;;12.33;66.68
73063;BME280;61230;46.328;19.972;2023-03-20T07:11:21;100734.75;;;12.41;65.74
73063;BME280;61230;46.328;19.972;2023-03-20T07:13:52;100738.31;;;12.59;65.29
73063;BME280;61230;46.328;19.972;2023-03-20T07:16:21;100737.56;;;12.66;65.66
73063;BME280;61230;46.328;19.972;2023-03-20T07:18:49;100738.75;;;12.82;64.72
73063;BME280;61230;46.328;19.972;2023-03-20T07:21:19;100748.53;;;12.99;64.20
73063;BME280;61230;46.328;19.972;2023-03-20T07:23:48;100690.19;;;12.92;63.21
73063;BME280;61230;46.328;19.972;2023-03-20T07:26:16;100731.97;;;13.24;62.44
73063;BME280;61230;46.328;19.972;2023-03-20T07:28:44;100722.16;;;13.34;62.65
73063;BME280;61230;46.328;19.972;2023-03-20T07:31:23;100718.37;;;13.54;62.84
73063;BME280;61230;46.328;19.972;2023-03-20T07:33:53;100717.09;;;13.58;62.40
73063;BME280;61230;46.328;19.972;2023-03-20T07:36:20;100725.41;;;13.63;62.62
73063;BME280;61230;46.328;19.972;2023-03-20T07:38:48;100728.63;;;13.75;63.04
73063;BME280;61230;46.328;19.972;2023-03-20T07:41:17;100731.50;;;13.81;64.35
73063;BME280;61230;46.328;19.972;2023-03-20T07:43:45;100733.75;;;13.76;63.67
73063;BME280;61230;46.328;19.972;2023-03-20T07:46:17;100730.50;;;13.82;61.99
73063;BME280;61230;46.328;19.972;2023-03-20T07:48:45;100732.97;;;13.76;61.99
73063;BME280;61230;46.328;19.972;2023-03-20T07:51:12;100733.38;;;13.89;62.43
73063;BME280;61230;46.328;19.972;2023-03-20T07:53:43;100732.91;;;13.94;61.87
73063;BME280;61230;46.328;19.972;2023-03-20T07:56:12;100730.47;;;14.00;61.71
73063;BME280;61230;46.328;19.972;2023-03-20T07:58:40;100734.09;;;13.99;61.78
73063;BME280;61230;46.328;19.972;2023-03-20T08:01:08;100731.84;;;14.04;61.12
73063;BME280;61230;46.328;19.972;2023-03-20T08:03:36;100730.78;;;14.23;61.44
73063;BME280;61230;46.328;19.972;2023-03-20T08:06:05;100728.75;;;14.34;61.19
73063;BME280;61230;46.328;19.972;2023-03-20T08:08:39;100735.75;;;14.44;60.11
73063;BME280;61230;46.328;19.972;2023-03-20T08:11:06;100739.38;;;14.43;59.81
73063;BME280;61230;46.328;19.972;2023-03-20T08:13:34;100705.00;;;13.99;59.93
73063;BME280;61230;46.328;19.972;2023-03-20T08:16:02;100746.94;;;14.12;59.84
73063;BME280;61230;46.328;19.972;2023-03-20T08:18:30;100702.78;;;13.87;60.89
73063;BME280;61230;46.328;19.972;2023-03-20T08:21:04;100744.69;;;13.99;61.34
73063;BME280;61230;46.328;19.972;2023-03-20T08:23:32;100747.66;;;13.96;61.86
73063;BME280;61230;46.328;19.972;2023-03-20T08:26:00;100746.38;;;13.82;62.13
73063;BME280;61230;46.328;19.972;2023-03-20T08:28:27;100697.63;;;13.59;61.71
73063;BME280;61230;46.328;19.972;2023-03-20T08:31:14;100742.81;;;13.92;61.77
73063;BME280;61230;46.328;19.972;2023-03-20T08:33:44;100731.41;;;13.91;61.33
73063;BME280;61230;46.328;19.972;2023-03-20T08:36:12;100726.91;;;14.09;60.96
73063;BME280;61230;46.328;19.972;2023-03-20T08:38:42;100733.97;;;14.26;60.26
73063;BME280;61230;46.328;19.972;2023-03-20T08:41:09;100736.31;;;14.55;59.72
73063;BME280;61230;46.328;19.972;2023-03-20T08:43:37;100694.16;;;14.36;60.09
73063;BME280;61230;46.328;19.972;2023-03-20T08:46:06;100742.25;;;14.99;58.91
73063;BME280;61230;46.328;19.972;2023-03-20T08:48:34;100742.66;;;15.20;57.99
73063;BME280;61230;46.328;19.972;2023-03-20T08:51:02;100697.87;;;15.01;55.90
73063;BME280;61230;46.328;19.972;2023-03-20T08:53:30;100753.84;;;15.56;56.49
73063;BME280;61230;46.328;19.972;2023-03-20T08:55:58;100747.03;;;15.53;56.04
73063;BME280;61230;46.328;19.972;2023-03-20T08:58:26;100743.00;;;15.41;55.99
73063;BME280;61230;46.328;19.972;2023-03-20T09:00:54;100755.50;;;15.65;56.07
73063;BME280;61230;46.328;19.972;2023-03-20T09:03:22;100753.50;;;15.75;55.63
73063;BME280;61230;46.328;19.972;2023-03-20T09:05:50;100753.88;;;15.72;55.00
73063;BME280;61230;46.328;19.972;2023-03-20T09:08:19;100705.56;;;15.36;55.21
73063;BME280;61230;46.328;19.972;2023-03-20T09:10:47;100761.97;;;15.79;55.87
73063;BME280;61230;46.328;19.972;2023-03-20T09:13:20;100755.84;;;15.62;56.24
73063;BME280;61230;46.328;19.972;2023-03-20T09:15:54;100754.34;;;15.92;55.94
73063;BME280;61230;46.328;19.972;2023-03-20T09:18:24;100759.16;;;15.96;55.21
73063;BME280;61230;46.328;19.972;2023-03-20T09:20:52;100756.00;;;16.09;54.80
73063;BME280;61230;46.328;19.972;2023-03-20T09:23:21;100744.72;;;15.99;54.72
73063;BME280;61230;46.328;19.972;2023-03-20T09:25:49;100754.28;;;16.24;54.60
73063;BME280;61230;46.328;19.972;2023-03-20T09:28:16;100746.84;;;16.20;54.36
73063;BME280;61230;46.328;19.972;2023-03-20T09:30:44;100746.97;;;16.42;54.49
73063;BME280;61230;46.328;19.972;2023-03-20T09:33:12;100744.28;;;16.58;54.04
73063;BME280;61230;46.328;19.972;2023-03-20T09:35:41;100746.63;;;16.53;53.78
73063;BME280;61230;46.328;19.972;2023-03-20T09:38:10;100747.59;;;16.69;53.22
73063;BME280;61230;46.328;19.972;2023-03-20T09:41:02;100746.84;;;16.83;53.89
73063;BME280;61230;46.328;19.972;2023-03-20T09:46:35;100732.34;;;16.54;53.59
73063;BME280;61230;46.328;19.972;2023-03-20T09:49:16;100736.13;;;16.68;52.92
73063;BME280;61230;46.328;19.972;2023-03-20T09:51:54;100736.22;;;16.83;52.83
73063;BME280;61230;46.328;19.972;2023-03-20T09:54:43;100734.78;;;17.03;52.52
73063;BME280;61230;46.328;19.972;2023-03-20T09:57:25;100728.91;;;17.15;52.47
73063;BME280;61230;46.328;19.972;2023-03-20T09:59:58;100689.19;;;17.14;52.54
73063;BME280;61230;46.328;19.972;2023-03-20T10:05:28;100738.06;;;16.82;52.01
73063;BME280;61230;46.328;19.972;2023-03-20T10:07:59;100728.81;;;17.01;52.16
73063;BME280;61230;46.328;19.972;2023-03-20T10:10:45;100734.16;;;16.93;52.44
73063;BME280;61230;46.328;19.972;2023-03-20T10:13:34;100721.06;;;16.91;51.61
73063;BME280;61230;46.328;19.972;2023-03-20T10:21:43;100719.59;;;16.81;51.69
73063;BME280;61230;46.328;19.972;2023-03-20T10:24:24;100720.81;;;16.70;51.38
73063;BME280;61230;46.328;19.972;2023-03-20T10:26:57;100709.62;;;17.13;50.58
73063;BME280;61230;46.328;19.972;2023-03-20T10:29:40;100712.81;;;17.09;51.84
73063;BME280;61230;46.328;19.972;2023-03-20T10:32:35;100714.28;;;16.81;51.41
73063;BME280;61230;46.328;19.972;2023-03-20T10:35:55;100715.59;;;17.15;52.18
73063;BME280;61230;46.328;19.972;2023-03-20T10:41:09;100716.56;;;16.92;51.87
73063;BME280;61230;46.328;19.972;2023-03-20T10:43:41;100670.84;;;16.96;50.93
73063;BME280;61230;46.328;19.972;2023-03-20T10:46:15;100709.38;;;17.00;50.84
73063;BME280;61230;46.328;19.972;2023-03-20T10:49:08;100711.81;;;17.10;51.45
73063;BME280;61230;46.328;19.972;2023-03-20T10:51:50;100710.56;;;17.20;51.14
73063;BME280;61230;46.328;19.972;2023-03-20T10:54:35;100661.50;;;17.23;51.03
73063;BME280;61230;46.328;19.972;2023-03-20T11:00:39;100700.38;;;17.92;49.93
73063;BME280;61230;46.328;19.972;2023-03-20T11:03:16;100699.75;;;18.34;49.71
73063;BME280;61230;46.328;19.972;2023-03-20T11:06:34;100665.03;;;17.98;48.99
73063;BME280;61230;46.328;19.972;2023-03-20T11:08:46;100690.59;;;18.22;49.68
73063;BME280;61230;46.328;19.972;2023-03-20T11:11:21;100691.59;;;18.06;48.92
73063;BME280;61230;46.328;19.972;2023-03-20T11:13:49;100680.22;;;18.27;50.03
73063;BME280;61230;46.328;19.972;2023-03-20T11:18:45;100682.44;;;18.88;47.17
73063;BME280;61230;46.328;19.972;2023-03-20T11:21:21;100676.75;;;18.91;48.27
73063;BME280;61230;46.328;19.972;2023-03-20T11:23:50;100675.72;;;18.57;47.53
73063;BME280;61230;46.328;19.972;2023-03-20T11:26:31;100673.41;;;18.54;47.40
73063;BME280;61230;46.328;19.972;2023-03-20T11:29:00;100671.56;;;18.54;46.98
73063;BME280;61230;46.328;19.972;2023-03-20T11:31:39;100665.31;;;18.62;46.95
73063;BME280;61230;46.328;19.972;2023-03-20T11:36:59;100662.84;;;18.31;45.33
73063;BME280;61230;46.328;19.972;2023-03-20T11:40:09;100664.50;;;18.61;45.67
73063;BME280;61230;46.328;19.972;2023-03-20T11:42:54;100617.63;;;18.37;45.32
73063;BME280;61230;46.328;19.972;2023-03-20T11:45:23;100649.50;;;18.75;43.60
73063;BME280;61230;46.328;19.972;2023-03-20T11:47:54;100640.37;;;18.84;43.25
73063;BME280;61230;46.328;19.972;2023-03-20T11:50:31;100645.28;;;18.51;44.52
73063;BME280;61230;46.328;19.972;2023-03-20T11:53:02;100643.84;;;18.49;45.01
73063;BME280;61230;46.328;19.972;2023-03-20T11:55:32;100646.25;;;18.79;44.30
73063;BME280;61230;46.328;19.972;2023-03-20T11:58:03;100640.22;;;18.56;45.13
73063;BME280;61230;46.328;19.972;2023-03-20T12:00:37;100634.00;;;18.20;44.73
73063;BME280;61230;46.328;19.972;2023-03-20T12:06:25;100639.22;;;18.93;44.63
73063;BME280;61230;46.328;19.972;2023-03-20T12:09:00;100639.12;;;18.65;42.82
73063;BME280;61230;46.328;19.972;2023-03-20T12:19:48;100620.31;;;19.52;41.31
73063;BME280;61230;46.328;19.972;2023-03-20T12:22:23;100619.84;;;19.76;42.47
73063;BME280;61230;46.328;19.972;2023-03-20T12:25:56;100579.31;;;19.38;41.95
73063;BME280;61230;46.328;19.972;2023-03-20T12:28:16;100616.41;;;19.33;41.17
73063;BME280;61230;46.328;19.972;2023-03-20T12:30:53;100607.72;;;19.24;41.74
73063;BME280;61230;46.328;19.972;2023-03-20T12:33:41;100611.06;;;19.54;41.83
73063;BME280;61230;46.328;19.972;2023-03-20T12:36:16;100568.91;;;19.22;41.76
73063;BME280;61230;46.328;19.972;2023-03-20T12:38:45;100610.06;;;19.55;42.15
73063;BME280;61230;46.328;19.972;2023-03-20T12:41:21;100584.91;;;19.22;41.87
73063;BME280;61230;46.328;19.972;2023-03-20T12:49:41;100606.81;;;18.96;43.53
73063;BME280;61230;46.328;19.972;2023-03-20T12:58:25;100609.44;;;18.54;43.86
73063;BME280;61230;46.328;19.972;2023-03-20T13:01:31;100617.13;;;18.27;44.42
73063;BME280;61230;46.328;19.972;2023-03-20T13:04:39;100608.47;;;18.25;44.12
73063;BME280;61230;46.328;19.972;2023-03-20T13:07:00;100600.53;;;18.47;44.05
73063;BME280;61230;46.328;19.972;2023-03-20T13:12:39;100600.09;;;18.79;43.35
73063;BME280;61230;46.328;19.972;2023-03-20T13:23:26;100592.78;;;18.87;40.81
73063;BME280;61230;46.328;19.972;2023-03-20T13:29:17;100581.12;;;18.88;42.34
73063;BME280;61230;46.328;19.972;2023-03-20T13:32:11;100586.41;;;19.03;41.65
73063;BME280;61230;46.328;19.972;2023-03-20T13:37:38;100594.28;;;18.54;41.49
73063;BME280;61230;46.328;19.972;2023-03-20T13:43:18;100588.75;;;18.91;40.67
73063;BME280;61230;46.328;19.972;2023-03-20T13:45:46;100588.09;;;19.11;40.15
73063;BME280;61230;46.328;19.972;2023-03-20T13:56:28;100583.00;;;18.73;39.76
73063;BME280;61230;46.328;19.972;2023-03-20T14:04:46;100527.88;;;18.53;38.96
73063;BME280;61230;46.328;19.972;2023-03-20T14:07:36;100575.59;;;18.69;38.75
73063;BME280;61230;46.328;19.972;2023-03-20T14:15:17;100524.03;;;18.26;40.90
73063;BME280;61230;46.328;19.972;2023-03-20T14:17:46;100566.50;;;18.27;41.01
73063;BME280;61230;46.328;19.972;2023-03-20T14:20:37;100556.22;;;18.10;40.76
73063;BME280;61230;46.328;19.972;2023-03-20T14:23:15;100525.84;;;17.90;40.76
73063;BME280;61230;46.328;19.972;2023-03-20T14:25:46;100560.53;;;18.11;41.23
73063;BME280;61230;46.328;19.972;2023-03-20T14:30:42;100560.09;;;17.93;42.26
73063;BME280;61230;46.328;19.972;2023-03-20T14:38:37;100570.75;;;17.78;42.52
73063;BME280;61230;46.328;19.972;2023-03-20T14:41:18;100572.56;;;17.77;42.87
73063;BME280;61230;46.328;19.972;2023-03-20T14:51:55;100575.72;;;17.06;43.47
73063;BME280;61230;46.328;19.972;2023-03-20T14:54:27;100577.88;;;17.11;43.95
73063;BME280;61230;46.328;19.972;2023-03-20T14:57:16;100574.66;;;17.15;44.18
73063;BME280;61230;46.328;19.972;2023-03-20T14:59:48;100579.94;;;17.01;44.28
73063;BME280;61230;46.328;19.972;2023-03-20T15:02:35;100576.00;;;16.97;45.07
73063;BME280;61230;46.328;19.972;2023-03-20T15:05:03;100569.56;;;16.91;44.43
73063;BME280;61230;46.328;19.972;2023-03-20T15:07:35;100578.75;;;16.81;44.89
73063;BME280;61230;46.328;19.972;2023-03-20T15:10:06;100582.09;;;16.75;45.51
73063;BME280;61230;46.328;19.972;2023-03-20T15:12:35;100536.09;;;16.43;45.08
73063;BME280;61230;46.328;19.972;2023-03-20T15:15:17;100563.31;;;16.53;45.35
73063;BME280;61230;46.328;19.972;2023-03-20T15:17:49;100569.91;;;16.57;45.93
73063;BME280;61230;46.328;19.972;2023-03-20T15:20:24;100578.75;;;16.50;45.64
73063;BME280;61230;46.328;19.972;2023-03-20T15:23:00;100575.75;;;16.53;45.72
73063;BME280;61230;46.328;19.972;2023-03-20T15:28:04;100581.25;;;16.51;46.64
73063;BME280;61230;46.328;19.972;2023-03-20T15:30:37;100579.75;;;16.49;46.23
73063;BME280;61230;46.328;19.972;2023-03-20T15:33:09;100535.63;;;16.17;46.03
73063;BME280;61230;46.328;19.972;2023-03-20T15:35:42;100591.38;;;16.48;46.35
73063;BME280;61230;46.328;19.972;2023-03-20T15:38:13;100583.28;;;16.41;46.52
73063;BME280;61230;46.328;19.972;2023-03-20T15:40:42;100583.31;;;16.33;46.85
73063;BME280;61230;46.328;19.972;2023-03-20T15:43:22;100582.00;;;16.29;46.55
73063;BME280;61230;46.328;19.972;2023-03-20T15:45:51;100584.53;;;16.23;46.70